createdAt,value
2022-11-05T00:00:46.696Z,14.50
2022-11-05T00:06:31.106Z,14.77
2022-11-05T00:09:16.378Z,14.93
2022-11-05T00:12:18.565Z,14.23
2022-11-05T00:24:46.350Z,15.35
2022-11-05T00:31:38.337Z,14.35
2022-11-05T00:34:05.112Z,17.42
2022-11-05T00:36:31.982Z,18.08
2022-11-05T00:38:58.784Z,17.00
2022-11-05T00:41:25.578Z,18.20
2022-11-05T00:44:10.851Z,18.10
2022-11-05T00:46:37.721Z,17.58
2022-11-05T00:49:23.053Z,17.50
2022-11-05T00:52:09.849Z,18.35
2022-11-05T00:54:36.761Z,19.98
2022-11-05T00:57:04.852Z,18.80
2022-11-05T00:59:31.888Z,18.38
2022-11-05T01:01:59.296Z,19.33
2022-11-05T01:04:26.303Z,19.45
2022-11-05T01:06:53.164Z,18.30
2022-11-05T01:09:19.970Z,20.40
2022-11-05T01:11:46.979Z,19.27
2022-11-05T01:14:16.101Z,19.60
2022-11-05T01:16:43.235Z,19.60
2022-11-05T01:19:11.520Z,19.33
2022-11-05T01:21:38.617Z,20.67
2022-11-05T01:24:06.246Z,19.02
2022-11-05T01:26:33.189Z,20.20
2022-11-05T01:29:00.564Z,21.63
2022-11-05T01:31:28.635Z,20.70
2022-11-05T01:33:55.554Z,21.20
2022-11-05T01:36:22.476Z,20.65
2022-11-05T01:38:49.278Z,21.77
2022-11-05T01:41:16.209Z,20.73
2022-11-05T01:43:54.579Z,21.70
2022-11-05T01:46:41.934Z,21.40
2022-11-05T01:49:21.277Z,22.80
2022-11-05T01:51:49.116Z,19.40
2022-11-05T01:54:22.959Z,22.33
2022-11-05T01:57:11.156Z,19.70
2022-11-05T01:59:48.771Z,18.48
2022-11-05T02:02:17.190Z,20.33
2022-11-05T02:04:53.941Z,19.35
2022-11-05T02:07:25.864Z,19.45
2022-11-05T02:10:04.167Z,18.92
2022-11-05T02:12:34.761Z,17.83
2022-11-05T02:15:01.877Z,17.38
2022-11-05T02:18:06.382Z,16.67
2022-11-05T02:21:07.650Z,17.42
2022-11-05T02:23:50.214Z,16.58
2022-11-05T02:26:53.763Z,17.30
2022-11-05T02:30:12.166Z,18.05
2022-11-05T02:32:56.973Z,16.48
2022-11-05T02:35:50.097Z,18.77
2022-11-05T02:38:41.387Z,17.88
2022-11-05T02:41:27.909Z,17.83
2022-11-05T02:48:11.917Z,16.65
2022-11-05T02:51:02.071Z,17.13
2022-11-05T02:54:05.007Z,18.48
2022-11-05T02:56:41.831Z,17.40
2022-11-05T02:59:08.680Z,18.27
2022-11-05T03:01:37.608Z,17.80
2022-11-05T03:04:10.166Z,17.33
2022-11-05T03:07:08.630Z,17.48
2022-11-05T03:10:11.520Z,16.35
2022-11-05T03:13:06.914Z,16.98
2022-11-05T03:16:07.274Z,18.13
2022-11-05T03:19:13.628Z,17.35
2022-11-05T03:24:46.127Z,16.98
2022-11-05T03:27:23.588Z,15.60
2022-11-05T03:30:00.316Z,16.10
2022-11-05T03:32:32.278Z,17.60
2022-11-05T03:35:30.680Z,18.30
2022-11-05T03:38:05.322Z,17.27
2022-11-05T03:40:38.546Z,17.65
2022-11-05T03:43:09.095Z,16.27
2022-11-05T03:45:50.357Z,18.63
2022-11-05T03:48:20.553Z,18.98
2022-11-05T03:51:00.103Z,17.50
2022-11-05T03:53:35.044Z,16.70
2022-11-05T03:56:36.104Z,19.15
2022-11-05T03:59:05.805Z,17.42
2022-11-05T04:01:33.153Z,18.27
2022-11-05T04:04:00.086Z,18.55
2022-11-05T04:06:45.240Z,19.02
2022-11-05T04:09:30.515Z,20.58
2022-11-05T04:12:15.896Z,19.65
2022-11-05T04:14:42.752Z,19.88
2022-11-05T04:17:09.955Z,19.90
2022-11-05T04:19:58.775Z,21.85
2022-11-05T04:22:49.441Z,21.52
2022-11-05T04:25:18.051Z,22.02
2022-11-05T04:27:46.468Z,22.02
2022-11-05T04:30:19.824Z,22.75
2022-11-05T04:33:13.260Z,23.88
2022-11-05T04:35:47.040Z,22.75
2022-11-05T04:38:20.126Z,21.35
2022-11-05T04:40:48.222Z,23.88
2022-11-05T04:43:19.064Z,23.08
2022-11-05T04:45:46.662Z,23.73
2022-11-05T04:48:13.615Z,24.25
2022-11-05T04:50:40.474Z,21.85
2022-11-05T04:53:07.368Z,22.63
2022-11-05T04:55:34.372Z,21.58
2022-11-05T04:58:01.196Z,22.60
2022-11-05T05:00:28.243Z,23.10
2022-11-05T05:02:55.157Z,23.75
2022-11-05T05:05:23.026Z,22.75
2022-11-05T05:07:49.845Z,22.90
2022-11-05T05:10:16.865Z,21.73
2022-11-05T05:12:43.781Z,23.58
2022-11-05T05:15:10.870Z,23.42
2022-11-05T05:17:38.916Z,21.90
2022-11-05T05:20:25.599Z,22.70
2022-11-05T05:22:54.271Z,21.95
2022-11-05T05:25:22.411Z,24.73
2022-11-05T05:27:49.253Z,23.33
2022-11-05T05:30:16.272Z,21.50
2022-11-05T05:32:43.101Z,22.42
2022-11-05T05:35:10.478Z,22.88
2022-11-05T05:37:37.361Z,21.20
2022-11-05T05:40:04.604Z,23.67
2022-11-05T05:42:31.627Z,23.40
2022-11-05T05:44:58.456Z,19.77
2022-11-05T05:47:25.274Z,22.55
2022-11-05T05:49:52.321Z,21.02
2022-11-05T05:52:19.265Z,21.73
2022-11-05T05:54:46.111Z,20.90
2022-11-05T05:57:12.893Z,21.33
2022-11-05T05:59:39.781Z,21.65
2022-11-05T06:02:06.827Z,22.55
2022-11-05T06:04:33.765Z,21.90
2022-11-05T06:07:00.582Z,22.00
2022-11-05T06:09:27.398Z,21.52
2022-11-05T06:11:54.393Z,22.55
2022-11-05T06:14:21.242Z,20.75
2022-11-05T06:16:48.078Z,21.10
2022-11-05T06:19:15.244Z,21.73
2022-11-05T06:21:42.033Z,20.98
2022-11-05T06:24:09.199Z,23.35
2022-11-05T06:26:36.060Z,20.27
2022-11-05T06:29:03.059Z,21.40
2022-11-05T06:31:39.516Z,21.40
2022-11-05T06:34:06.496Z,20.92
2022-11-05T06:36:33.538Z,21.48
2022-11-05T06:39:00.387Z,20.88
2022-11-05T06:41:27.252Z,18.77
2022-11-05T06:44:57.845Z,21.58
2022-11-05T06:47:24.920Z,19.60
2022-11-05T06:49:51.874Z,21.30
2022-11-05T06:52:18.747Z,20.02
2022-11-05T06:54:45.650Z,21.67
2022-11-05T06:57:13.219Z,20.45
2022-11-05T06:59:40.412Z,19.77
2022-11-05T07:02:11.568Z,19.88
2022-11-05T07:04:38.481Z,20.00
2022-11-05T07:07:05.389Z,19.98
2022-11-05T07:09:32.198Z,20.25
2022-11-05T07:11:59.281Z,20.45
2022-11-05T07:14:26.312Z,19.58
2022-11-05T07:16:53.380Z,20.60
2022-11-05T07:19:20.842Z,19.75
2022-11-05T07:21:48.816Z,19.15
2022-11-05T07:24:15.650Z,17.65
2022-11-05T07:26:42.607Z,18.13
2022-11-05T07:29:09.429Z,16.85
2022-11-05T07:31:36.324Z,17.50
2022-11-05T07:34:03.887Z,18.17
2022-11-05T07:36:57.665Z,19.08
2022-11-05T07:39:24.649Z,18.83
2022-11-05T07:41:55.222Z,16.95
2022-11-05T07:44:22.488Z,16.05
2022-11-05T07:46:51.073Z,17.50
2022-11-05T07:49:18.915Z,15.48
2022-11-05T07:51:45.835Z,16.77
2022-11-05T07:54:57.025Z,16.83
2022-11-05T07:57:23.989Z,16.70
2022-11-05T07:59:50.874Z,17.05
2022-11-05T08:02:17.854Z,16.45
2022-11-05T08:04:46.377Z,15.75
2022-11-05T08:07:13.524Z,16.73
2022-11-05T08:09:40.442Z,15.77
2022-11-05T08:12:10.022Z,15.45
2022-11-05T08:14:39.794Z,16.00
2022-11-05T08:17:07.023Z,15.02
2022-11-05T08:19:34.014Z,16.88
2022-11-05T08:22:00.893Z,16.35
2022-11-05T08:24:27.831Z,15.40
2022-11-05T08:26:54.709Z,14.70
2022-11-05T08:29:21.632Z,14.07
2022-11-05T08:31:48.622Z,13.73
2022-11-05T08:34:15.598Z,14.57
2022-11-05T08:36:46.347Z,14.13
2022-11-05T08:39:16.975Z,14.10
2022-11-05T08:41:44.505Z,13.10
2022-11-05T08:44:11.640Z,12.93
2022-11-05T08:46:41.615Z,13.05
2022-11-05T08:49:08.891Z,11.98
2022-11-05T08:51:35.850Z,13.75
2022-11-05T08:54:02.720Z,12.48
2022-11-05T08:56:29.608Z,13.48
2022-11-05T08:58:56.453Z,12.32
2022-11-05T09:01:23.515Z,12.50
2022-11-05T09:03:51.985Z,11.10
2022-11-05T09:06:22.132Z,12.60
2022-11-05T09:08:49.030Z,12.13
2022-11-05T09:11:16.515Z,13.43
2022-11-05T09:13:44.484Z,12.85
2022-11-05T09:16:25.939Z,10.90
2022-11-05T09:18:56.878Z,11.55
2022-11-05T09:21:23.790Z,10.80
2022-11-05T09:23:50.718Z,11.15
2022-11-05T09:26:17.780Z,10.82
2022-11-05T09:28:44.664Z,10.70
2022-11-05T09:31:12.585Z,10.80
2022-11-05T09:33:41.329Z,11.30
2022-11-05T09:36:09.187Z,11.05
2022-11-05T09:38:36.421Z,10.32
2022-11-05T09:41:29.480Z,10.60
2022-11-05T09:44:35.854Z,10.40
2022-11-05T09:47:11.244Z,10.27
2022-11-05T09:50:00.800Z,10.45
2022-11-05T09:52:32.802Z,9.90
2022-11-05T09:55:00.034Z,10.52
2022-11-05T09:57:46.909Z,8.93
2022-11-05T10:00:16.871Z,8.52
2022-11-05T10:02:52.595Z,8.57
2022-11-05T10:05:22.005Z,7.80
2022-11-05T10:07:59.250Z,6.90
2022-11-05T10:11:01.300Z,7.55
2022-11-05T10:13:40.868Z,6.68
2022-11-05T10:16:29.183Z,6.80
2022-11-05T10:19:09.813Z,6.25
2022-11-05T10:22:04.899Z,6.70
2022-11-05T10:24:25.019Z,5.95
2022-11-05T10:26:55.116Z,6.38
2022-11-05T10:29:33.237Z,5.95
2022-11-05T10:32:05.612Z,6.75
2022-11-05T10:34:38.017Z,5.53
2022-11-05T10:37:05.853Z,6.00
2022-11-05T10:39:34.644Z,6.35
2022-11-05T10:42:49.726Z,5.38
2022-11-05T10:45:47.966Z,4.70
2022-11-05T10:49:18.805Z,4.32
2022-11-05T10:51:52.322Z,3.90
2022-11-05T10:54:24.315Z,4.35
2022-11-05T10:56:51.584Z,3.78
2022-11-05T10:59:28.506Z,3.88
2022-11-05T11:02:21.481Z,3.70
2022-11-05T11:04:57.993Z,3.40
2022-11-05T11:07:27.032Z,3.10
2022-11-05T11:09:54.436Z,3.55
2022-11-05T11:12:36.850Z,4.90
2022-11-05T11:15:15.828Z,3.58
2022-11-05T11:17:42.824Z,3.22
2022-11-05T11:20:29.559Z,2.72
2022-11-05T11:23:03.469Z,2.95
2022-11-05T11:25:53.487Z,3.00
2022-11-05T11:28:26.444Z,4.38
2022-11-05T11:31:05.646Z,2.35
2022-11-05T11:33:35.090Z,2.70
2022-11-05T11:36:02.543Z,2.35
2022-11-05T11:38:36.628Z,4.00
2022-11-05T11:41:36.146Z,2.67
2022-11-05T11:44:12.736Z,2.50
2022-11-05T11:46:40.315Z,2.25
2022-11-05T11:49:27.442Z,2.67
2022-11-05T11:52:05.832Z,2.38
2022-11-05T11:54:35.381Z,2.40
2022-11-05T11:57:03.004Z,2.33
2022-11-05T12:00:01.909Z,2.83
2022-11-05T12:03:01.611Z,2.50
2022-11-05T12:06:20.940Z,2.67
2022-11-05T12:09:25.951Z,2.40
2022-11-05T12:12:10.720Z,2.80
2022-11-05T12:15:03.121Z,2.08
2022-11-05T12:18:05.449Z,2.75
2022-11-05T12:21:06.471Z,2.38
2022-11-05T12:24:06.828Z,2.22
2022-11-05T12:26:58.296Z,1.95
2022-11-05T12:29:55.598Z,1.67
2022-11-05T12:32:36.535Z,1.60
2022-11-05T12:35:54.820Z,2.05
2022-11-05T12:38:58.327Z,2.25
2022-11-05T12:42:02.266Z,1.80
2022-11-05T12:45:12.716Z,2.25
2022-11-05T12:48:03.751Z,1.88
2022-11-05T12:50:47.046Z,2.17
2022-11-05T12:53:26.782Z,1.85
2022-11-05T12:55:56.826Z,1.50
2022-11-05T12:58:34.826Z,2.28
2022-11-05T13:01:23.279Z,2.08
2022-11-05T13:04:01.609Z,2.30
2022-11-05T13:06:42.694Z,2.75
2022-11-05T13:09:42.544Z,2.80
2022-11-05T13:12:17.071Z,1.65
2022-11-05T13:14:51.939Z,1.92
2022-11-05T13:17:29.213Z,1.50
2022-11-05T13:20:31.394Z,2.10
2022-11-05T13:23:59.992Z,1.90
2022-11-05T13:26:35.773Z,1.63
2022-11-05T13:29:12.835Z,2.25
2022-11-05T13:31:48.856Z,1.65
2022-11-05T13:34:15.698Z,1.67
2022-11-05T13:37:20.621Z,1.42
2022-11-05T13:39:57.286Z,2.80
2022-11-05T13:42:26.735Z,2.10
2022-11-05T13:45:34.868Z,2.25
2022-11-05T13:48:19.603Z,2.40
2022-11-05T13:51:10.981Z,2.00
2022-11-05T13:53:51.179Z,2.33
2022-11-05T13:57:24.340Z,1.85
2022-11-05T14:00:16.020Z,1.83
2022-11-05T14:03:20.082Z,1.75
2022-11-05T14:06:02.127Z,1.60
2022-11-05T14:08:31.853Z,2.38
2022-11-05T14:11:21.552Z,1.70
2022-11-05T14:13:58.653Z,1.70
2022-11-05T14:16:45.754Z,2.63
2022-11-05T14:19:18.723Z,2.70
2022-11-05T14:21:57.908Z,1.90
2022-11-05T14:24:42.986Z,2.08
2022-11-05T14:27:33.374Z,2.42
2022-11-05T14:30:00.893Z,2.97
2022-11-05T14:32:46.134Z,2.67
2022-11-05T14:35:15.980Z,2.50
2022-11-05T14:38:05.279Z,2.13
2022-11-05T14:40:47.798Z,1.92
2022-11-05T14:43:14.898Z,2.13
2022-11-05T14:46:06.127Z,3.58
2022-11-05T14:48:44.024Z,2.80
2022-11-05T14:51:39.651Z,2.50
2022-11-05T14:56:56.369Z,2.97
2022-11-05T14:59:31.667Z,2.30
2022-11-05T15:04:40.450Z,1.98
2022-11-05T15:07:07.299Z,2.80
2022-11-05T15:09:53.876Z,2.40
2022-11-05T15:12:33.013Z,1.88
2022-11-05T15:15:10.438Z,1.98
2022-11-05T15:18:06.583Z,2.40
2022-11-05T15:20:49.686Z,2.05
2022-11-05T15:23:22.214Z,2.08
2022-11-05T15:26:20.406Z,1.65
2022-11-05T15:28:50.969Z,2.58
2022-11-05T15:31:43.254Z,3.28
2022-11-05T15:34:36.661Z,2.53
2022-11-05T15:37:12.743Z,2.70
2022-11-05T15:39:42.455Z,3.67
2022-11-05T15:42:16.417Z,2.85
2022-11-05T15:44:47.458Z,2.58
2022-11-05T15:47:28.394Z,2.40
2022-11-05T15:49:59.784Z,4.15
2022-11-05T15:52:42.985Z,2.42
2022-11-05T15:55:46.278Z,2.35
2022-11-05T15:58:13.363Z,2.42
2022-11-05T16:00:48.391Z,2.47
2022-11-05T16:03:44.408Z,2.15
2022-11-05T16:08:48.808Z,4.25
2022-11-05T16:11:26.188Z,3.33
2022-11-05T16:14:13.056Z,2.30
2022-11-05T16:16:40.613Z,2.40
2022-11-05T16:19:40.487Z,2.55
2022-11-05T16:22:08.469Z,3.28
2022-11-05T16:24:35.385Z,2.80
2022-11-05T16:27:05.527Z,2.40
2022-11-05T16:29:52.949Z,2.67
2022-11-05T16:32:31.770Z,2.55
2022-11-05T16:35:05.208Z,3.88
2022-11-05T16:37:52.641Z,4.90
2022-11-05T16:40:26.584Z,3.28
2022-11-05T16:42:56.815Z,4.45
2022-11-05T16:45:25.494Z,5.20
2022-11-05T16:47:52.544Z,4.82
2022-11-05T16:50:45.238Z,5.40
2022-11-05T16:53:13.686Z,3.95
2022-11-05T16:55:43.614Z,3.33
2022-11-05T16:58:26.698Z,3.30
2022-11-05T17:01:10.295Z,3.63
2022-11-05T17:03:37.188Z,3.78
2022-11-05T17:06:04.468Z,3.08
2022-11-05T17:08:31.303Z,4.07
2022-11-05T17:10:58.140Z,2.63
2022-11-05T17:13:25.015Z,3.47
2022-11-05T17:15:52.203Z,6.07
2022-11-05T17:18:20.512Z,9.20
2022-11-05T17:20:54.546Z,3.70
2022-11-05T17:23:26.742Z,3.38
2022-11-05T17:26:00.581Z,4.05
2022-11-05T17:28:29.042Z,3.10
2022-11-05T17:30:59.671Z,3.28
2022-11-05T17:33:27.076Z,3.40
2022-11-05T17:35:54.948Z,4.13
2022-11-05T17:38:25.358Z,4.05
2022-11-05T17:40:53.056Z,5.80
2022-11-05T17:43:21.013Z,6.63
2022-11-05T17:45:57.554Z,8.45
2022-11-05T17:48:26.949Z,3.80
2022-11-05T17:50:53.887Z,4.15
2022-11-05T17:53:20.734Z,14.15
2022-11-05T17:55:48.505Z,15.18
2022-11-05T17:58:15.604Z,34.65
2022-11-05T18:00:45.303Z,8.43
2022-11-05T18:03:12.834Z,4.43
2022-11-05T18:05:41.446Z,4.20
2022-11-05T18:08:17.778Z,4.00
2022-11-05T18:10:45.049Z,3.60
2022-11-05T18:13:12.282Z,5.30
2022-11-05T18:15:41.075Z,4.13
2022-11-05T18:18:08.768Z,6.70
2022-11-05T18:20:35.817Z,5.03
2022-11-05T18:23:02.804Z,8.52
2022-11-05T18:25:29.665Z,5.82
2022-11-05T18:28:13.755Z,5.18
2022-11-05T18:30:45.403Z,7.40
2022-11-05T18:33:37.907Z,4.53
2022-11-05T18:36:05.062Z,4.25
2022-11-05T18:38:31.885Z,4.13
2022-11-05T18:41:05.543Z,4.68
2022-11-05T18:43:32.600Z,4.63
2022-11-05T18:45:59.481Z,4.43
2022-11-05T18:48:26.542Z,4.90
2022-11-05T18:50:57.676Z,4.78
2022-11-05T18:53:36.254Z,5.10
2022-11-05T18:56:16.455Z,4.97
2022-11-05T18:58:44.089Z,5.05
2022-11-05T19:01:29.584Z,5.05
2022-11-05T19:06:25.512Z,5.38
2022-11-05T19:08:52.672Z,5.32
2022-11-05T19:11:22.697Z,6.75
2022-11-05T19:13:50.147Z,6.43
2022-11-05T19:16:24.994Z,6.88
2022-11-05T19:18:52.323Z,8.02
2022-11-05T19:21:24.674Z,8.23
2022-11-05T19:23:52.947Z,9.68
2022-11-05T19:26:28.128Z,8.48
2022-11-05T19:28:58.811Z,7.68
2022-11-05T19:31:27.114Z,6.93
2022-11-05T19:33:55.174Z,6.72
2022-11-05T19:36:24.680Z,6.30
2022-11-05T19:38:58.428Z,7.13
2022-11-05T19:41:27.076Z,7.93
2022-11-05T19:43:57.832Z,7.68
2022-11-05T19:46:25.496Z,8.80
2022-11-05T19:48:53.162Z,7.88
2022-11-05T19:51:25.126Z,8.63
2022-11-05T19:53:53.365Z,9.95
2022-11-05T19:56:24.139Z,9.63
2022-11-05T19:58:53.198Z,9.82
2022-11-05T20:01:22.967Z,10.27
2022-11-05T20:03:51.261Z,10.35
2022-11-05T20:06:40.728Z,10.63
2022-11-05T20:09:22.170Z,10.52
2022-11-05T20:11:54.631Z,11.52
2022-11-05T20:14:29.719Z,13.10
2022-11-05T20:16:56.710Z,12.95
2022-11-05T20:19:24.118Z,13.35
2022-11-05T20:21:51.475Z,12.88
2022-11-05T20:24:24.656Z,11.05
2022-11-05T20:26:56.066Z,12.88
2022-11-05T20:29:29.023Z,14.90
2022-11-05T20:31:57.850Z,14.10
2022-11-05T20:34:24.702Z,12.70
2022-11-05T20:36:51.557Z,13.10
2022-11-05T20:39:18.523Z,13.68
2022-11-05T20:41:45.379Z,15.20
2022-11-05T20:44:12.558Z,15.45
2022-11-05T20:46:39.587Z,14.95
2022-11-05T20:49:06.784Z,14.88
2022-11-05T20:51:33.736Z,13.85
2022-11-05T20:54:01.851Z,14.00
2022-11-05T20:56:34.641Z,13.75
2022-11-05T20:59:02.150Z,12.50
2022-11-05T21:01:33.146Z,12.38
2022-11-05T21:04:00.901Z,11.68
2022-11-05T21:06:27.846Z,10.68
2022-11-05T21:08:55.276Z,11.45
2022-11-05T21:11:22.232Z,11.45
2022-11-05T21:13:49.681Z,11.50
2022-11-05T21:16:19.489Z,11.88
2022-11-05T21:18:47.595Z,10.65
2022-11-05T21:21:19.290Z,12.27
2022-11-05T21:23:46.564Z,12.52
2022-11-05T21:26:17.988Z,11.65
2022-11-05T21:28:45.196Z,12.55
2022-11-05T21:31:12.222Z,13.10
2022-11-05T21:33:39.487Z,13.48
2022-11-05T21:36:10.740Z,14.32
2022-11-05T21:38:39.012Z,13.55
2022-11-05T21:41:07.276Z,15.50
2022-11-05T21:43:34.819Z,14.30
2022-11-05T21:46:04.286Z,14.23
2022-11-05T21:48:32.581Z,12.93
2022-11-05T21:51:18.423Z,13.30
2022-11-05T21:54:03.769Z,14.18
2022-11-05T21:56:50.287Z,13.15
2022-11-05T21:59:40.402Z,14.05
2022-11-05T22:02:09.882Z,13.98
2022-11-05T22:04:43.642Z,13.43
2022-11-05T22:07:15.353Z,12.05
2022-11-05T22:09:43.386Z,13.65
2022-11-05T22:12:10.665Z,13.30
2022-11-05T22:14:37.792Z,12.88
2022-11-05T22:17:05.999Z,12.65
2022-11-05T22:19:34.114Z,14.63
2022-11-05T22:22:01.423Z,13.88
2022-11-05T22:24:30.543Z,13.55
2022-11-05T22:27:05.817Z,14.98
2022-11-05T22:32:00.031Z,12.50
2022-11-05T22:34:27.299Z,12.82
2022-11-05T22:36:54.941Z,11.95
2022-11-05T22:39:25.165Z,11.73
2022-11-05T22:41:57.550Z,11.55
2022-11-05T22:44:26.648Z,12.32
2022-11-05T22:46:53.885Z,11.23
2022-11-05T22:49:20.886Z,12.20
2022-11-05T22:51:48.025Z,10.50
2022-11-05T22:54:15.215Z,12.27
2022-11-05T22:56:45.021Z,12.07
2022-11-05T22:59:16.134Z,11.50
2022-11-05T23:01:45.890Z,11.23
2022-11-05T23:04:14.543Z,10.73
2022-11-05T23:07:00.927Z,10.25
2022-11-05T23:09:51.634Z,10.52
2022-11-05T23:12:33.215Z,11.40
2022-11-05T23:15:07.195Z,9.60
2022-11-05T23:17:53.052Z,11.35
2022-11-05T23:20:42.059Z,10.95
2022-11-05T23:23:31.688Z,8.90
2022-11-05T23:26:00.332Z,10.25
2022-11-05T23:28:27.209Z,9.90
2022-11-05T23:31:12.842Z,9.05
2022-11-05T23:36:25.557Z,8.75
2022-11-05T23:38:52.351Z,9.32
2022-11-05T23:41:37.897Z,10.43
2022-11-05T23:47:08.641Z,9.05
2022-11-05T23:49:35.440Z,9.50
2022-11-05T23:52:02.388Z,10.18
2022-11-05T23:54:29.438Z,8.93
2022-11-05T23:56:56.463Z,9.38
2022-11-05T23:59:23.405Z,8.80
